sensor_id;sensor_type;location;lat;lon;timestamp;P1;durP1;ratioP1;P2;durP2;ratioP2
34019;SDS011;20895;51.034;3.742;2022-10-17T00:01:17;11.80;;;8.60;;
34019;SDS011;20895;51.034;3.742;2022-10-17T00:03:42;11.10;;;9.10;;
34019;SDS011;20895;51.034;3.742;2022-10-17T00:06:12;11.88;;;8.35;;
34019;SDS011;20895;51.034;3.742;2022-10-17T00:08:38;11.95;;;9.20;;
34019;SDS011;20895;51.034;3.742;2022-10-17T00:11:05;11.27;;;8.60;;
34019;SDS011;20895;51.034;3.742;2022-10-17T00:13:31;10.07;;;8.48;;
34019;SDS011;20895;51.034;3.742;2022-10-17T00:15:56;10.82;;;9.70;;
34019;SDS011;20895;51.034;3.742;2022-10-17T00:18:22;9.90;;;8.90;;
34019;SDS011;20895;51.034;3.742;2022-10-17T00:20:47;11.52;;;8.57;;
34019;SDS011;20895;51.034;3.742;2022-10-17T00:23:13;11.20;;;8.45;;
34019;SDS011;20895;51.034;3.742;2022-10-17T00:25:38;9.23;;;8.20;;
34019;SDS011;20895;51.034;3.742;2022-10-17T00:28:04;14.13;;;10.57;;
34019;SDS011;20895;51.034;3.742;2022-10-17T00:30:30;10.90;;;8.43;;
34019;SDS011;20895;51.034;3.742;2022-10-17T00:32:56;10.07;;;8.05;;
34019;SDS011;20895;51.034;3.742;2022-10-17T00:35:22;9.95;;;8.00;;
34019;SDS011;20895;51.034;3.742;2022-10-17T00:37:47;9.07;;;7.68;;
34019;SDS011;20895;51.034;3.742;2022-10-17T00:40:12;9.52;;;7.82;;
34019;SDS011;20895;51.034;3.742;2022-10-17T00:42:37;12.30;;;8.35;;
34019;SDS011;20895;51.034;3.742;2022-10-17T00:45:09;10.73;;;8.35;;
34019;SDS011;20895;51.034;3.742;2022-10-17T00:47:36;8.73;;;7.53;;
34019;SDS011;20895;51.034;3.742;2022-10-17T00:50:02;9.25;;;8.07;;
34019;SDS011;20895;51.034;3.742;2022-10-17T00:52:28;10.00;;;7.95;;
34019;SDS011;20895;51.034;3.742;2022-10-17T00:55:13;10.05;;;7.60;;
34019;SDS011;20895;51.034;3.742;2022-10-17T00:57:40;10.40;;;7.65;;
34019;SDS011;20895;51.034;3.742;2022-10-17T01:00:07;11.40;;;8.23;;
34019;SDS011;20895;51.034;3.742;2022-10-17T01:02:33;13.40;;;8.18;;
34019;SDS011;20895;51.034;3.742;2022-10-17T01:04:58;10.88;;;7.18;;
34019;SDS011;20895;51.034;3.742;2022-10-17T01:07:24;10.80;;;7.60;;
34019;SDS011;20895;51.034;3.742;2022-10-17T01:09:49;9.38;;;7.60;;
34019;SDS011;20895;51.034;3.742;2022-10-17T01:12:19;10.68;;;7.20;;
34019;SDS011;20895;51.034;3.742;2022-10-17T01:14:56;8.00;;;6.95;;
34019;SDS011;20895;51.034;3.742;2022-10-17T01:22:34;11.45;;;6.85;;
34019;SDS011;20895;51.034;3.742;2022-10-17T01:32:53;8.27;;;6.55;;
34019;SDS011;20895;51.034;3.742;2022-10-17T01:35:39;7.07;;;5.75;;
34019;SDS011;20895;51.034;3.742;2022-10-17T01:38:13;9.63;;;6.80;;
34019;SDS011;20895;51.034;3.742;2022-10-17T01:40:50;9.40;;;6.10;;
34019;SDS011;20895;51.034;3.742;2022-10-17T01:48:10;8.43;;;6.57;;
34019;SDS011;20895;51.034;3.742;2022-10-17T01:50:38;7.97;;;6.57;;
34019;SDS011;20895;51.034;3.742;2022-10-17T01:53:07;9.40;;;6.95;;
34019;SDS011;20895;51.034;3.742;2022-10-17T01:55:35;10.23;;;6.88;;
34019;SDS011;20895;51.034;3.742;2022-10-17T01:58:05;8.18;;;6.95;;
34019;SDS011;20895;51.034;3.742;2022-10-17T02:00:32;9.02;;;6.82;;
34019;SDS011;20895;51.034;3.742;2022-10-17T02:02:59;8.95;;;7.07;;
34019;SDS011;20895;51.034;3.742;2022-10-17T02:05:32;10.35;;;7.00;;
34019;SDS011;20895;51.034;3.742;2022-10-17T02:07:59;9.35;;;6.85;;
34019;SDS011;20895;51.034;3.742;2022-10-17T02:13:11;9.88;;;6.78;;
34019;SDS011;20895;51.034;3.742;2022-10-17T02:15:44;10.95;;;6.57;;
34019;SDS011;20895;51.034;3.742;2022-10-17T02:20:52;9.60;;;7.20;;
34019;SDS011;20895;51.034;3.742;2022-10-17T02:23:29;9.15;;;7.22;;
34019;SDS011;20895;51.034;3.742;2022-10-17T02:28:41;7.50;;;6.25;;
34019;SDS011;20895;51.034;3.742;2022-10-17T02:31:15;10.77;;;6.43;;
34019;SDS011;20895;51.034;3.742;2022-10-17T02:33:46;11.70;;;7.15;;
34019;SDS011;20895;51.034;3.742;2022-10-17T02:36:14;9.20;;;7.35;;
34019;SDS011;20895;51.034;3.742;2022-10-17T02:38:41;9.95;;;6.53;;
34019;SDS011;20895;51.034;3.742;2022-10-17T02:41:08;12.00;;;7.75;;
34019;SDS011;20895;51.034;3.742;2022-10-17T02:43:35;10.35;;;7.55;;
34019;SDS011;20895;51.034;3.742;2022-10-17T02:46:01;9.25;;;6.88;;
34019;SDS011;20895;51.034;3.742;2022-10-17T02:48:28;9.65;;;6.78;;
34019;SDS011;20895;51.034;3.742;2022-10-17T02:53:29;10.07;;;6.68;;
34019;SDS011;20895;51.034;3.742;2022-10-17T02:58:25;7.53;;;6.53;;
34019;SDS011;20895;51.034;3.742;2022-10-17T03:00:52;8.75;;;6.55;;
34019;SDS011;20895;51.034;3.742;2022-10-17T03:03:21;7.68;;;6.55;;
34019;SDS011;20895;51.034;3.742;2022-10-17T03:05:47;8.35;;;6.40;;
34019;SDS011;20895;51.034;3.742;2022-10-17T03:08:12;9.70;;;6.78;;
34019;SDS011;20895;51.034;3.742;2022-10-17T03:10:37;13.27;;;6.55;;
34019;SDS011;20895;51.034;3.742;2022-10-17T03:13:02;7.63;;;5.87;;
34019;SDS011;20895;51.034;3.742;2022-10-17T03:15:27;12.73;;;6.90;;
34019;SDS011;20895;51.034;3.742;2022-10-17T03:17:53;9.17;;;6.67;;
34019;SDS011;20895;51.034;3.742;2022-10-17T03:20:18;8.40;;;5.53;;
34019;SDS011;20895;51.034;3.742;2022-10-17T03:22:43;10.35;;;5.50;;
34019;SDS011;20895;51.034;3.742;2022-10-17T03:25:08;8.35;;;7.05;;
34019;SDS011;20895;51.034;3.742;2022-10-17T03:27:34;9.10;;;5.55;;
34019;SDS011;20895;51.034;3.742;2022-10-17T03:29:59;6.05;;;5.45;;
34019;SDS011;20895;51.034;3.742;2022-10-17T03:32:24;8.57;;;5.95;;
34019;SDS011;20895;51.034;3.742;2022-10-17T03:34:49;7.80;;;6.50;;
34019;SDS011;20895;51.034;3.742;2022-10-17T03:37:15;7.07;;;6.25;;
34019;SDS011;20895;51.034;3.742;2022-10-17T03:39:40;7.22;;;5.88;;
34019;SDS011;20895;51.034;3.742;2022-10-17T03:42:05;7.40;;;5.65;;
34019;SDS011;20895;51.034;3.742;2022-10-17T03:44:30;8.03;;;6.40;;
34019;SDS011;20895;51.034;3.742;2022-10-17T03:46:56;7.90;;;6.50;;
34019;SDS011;20895;51.034;3.742;2022-10-17T03:49:21;11.07;;;6.10;;
34019;SDS011;20895;51.034;3.742;2022-10-17T03:51:46;12.13;;;5.70;;
34019;SDS011;20895;51.034;3.742;2022-10-17T03:54:12;7.22;;;6.20;;
34019;SDS011;20895;51.034;3.742;2022-10-17T03:56:37;8.60;;;6.05;;
34019;SDS011;20895;51.034;3.742;2022-10-17T03:59:02;9.95;;;6.07;;
34019;SDS011;20895;51.034;3.742;2022-10-17T04:01:28;10.93;;;5.97;;
34019;SDS011;20895;51.034;3.742;2022-10-17T04:03:54;9.30;;;6.53;;
34019;SDS011;20895;51.034;3.742;2022-10-17T04:06:20;11.43;;;6.40;;
34019;SDS011;20895;51.034;3.742;2022-10-17T04:08:45;10.15;;;6.35;;
34019;SDS011;20895;51.034;3.742;2022-10-17T04:11:14;7.10;;;6.38;;
34019;SDS011;20895;51.034;3.742;2022-10-17T04:13:40;10.60;;;6.57;;
34019;SDS011;20895;51.034;3.742;2022-10-17T04:16:06;12.38;;;6.70;;
34019;SDS011;20895;51.034;3.742;2022-10-17T04:18:32;9.57;;;7.43;;
34019;SDS011;20895;51.034;3.742;2022-10-17T04:20:59;7.65;;;6.55;;
34019;SDS011;20895;51.034;3.742;2022-10-17T04:23:25;8.80;;;6.82;;
34019;SDS011;20895;51.034;3.742;2022-10-17T04:25:54;9.50;;;8.00;;
34019;SDS011;20895;51.034;3.742;2022-10-17T04:28:19;7.88;;;7.07;;
34019;SDS011;20895;51.034;3.742;2022-10-17T04:30:45;10.77;;;7.27;;
34019;SDS011;20895;51.034;3.742;2022-10-17T04:33:10;9.25;;;6.68;;
34019;SDS011;20895;51.034;3.742;2022-10-17T04:35:35;8.15;;;6.32;;
34019;SDS011;20895;51.034;3.742;2022-10-17T04:38:00;10.50;;;6.93;;
34019;SDS011;20895;51.034;3.742;2022-10-17T04:40:25;7.78;;;6.30;;
34019;SDS011;20895;51.034;3.742;2022-10-17T04:42:51;11.05;;;6.90;;
34019;SDS011;20895;51.034;3.742;2022-10-17T04:45:16;8.68;;;6.65;;
34019;SDS011;20895;51.034;3.742;2022-10-17T04:47:42;7.85;;;6.50;;
34019;SDS011;20895;51.034;3.742;2022-10-17T04:50:07;10.65;;;6.70;;
34019;SDS011;20895;51.034;3.742;2022-10-17T04:52:33;8.02;;;6.60;;
34019;SDS011;20895;51.034;3.742;2022-10-17T04:54:59;9.98;;;6.50;;
34019;SDS011;20895;51.034;3.742;2022-10-17T04:57:24;12.05;;;7.60;;
34019;SDS011;20895;51.034;3.742;2022-10-17T04:59:49;9.43;;;7.43;;
34019;SDS011;20895;51.034;3.742;2022-10-17T05:02:15;15.93;;;7.93;;
34019;SDS011;20895;51.034;3.742;2022-10-17T05:04:40;8.90;;;6.85;;
34019;SDS011;20895;51.034;3.742;2022-10-17T05:07:05;10.90;;;6.88;;
34019;SDS011;20895;51.034;3.742;2022-10-17T05:09:30;8.60;;;7.13;;
34019;SDS011;20895;51.034;3.742;2022-10-17T05:11:56;7.35;;;6.47;;
34019;SDS011;20895;51.034;3.742;2022-10-17T05:14:21;9.07;;;7.28;;
34019;SDS011;20895;51.034;3.742;2022-10-17T05:16:46;10.63;;;7.00;;
34019;SDS011;20895;51.034;3.742;2022-10-17T05:19:11;7.45;;;6.25;;
34019;SDS011;20895;51.034;3.742;2022-10-17T05:21:37;11.15;;;7.75;;
34019;SDS011;20895;51.034;3.742;2022-10-17T05:24:08;10.65;;;7.18;;
34019;SDS011;20895;51.034;3.742;2022-10-17T05:26:35;8.75;;;6.93;;
34019;SDS011;20895;51.034;3.742;2022-10-17T05:29:00;9.75;;;6.45;;
34019;SDS011;20895;51.034;3.742;2022-10-17T05:31:29;10.38;;;8.07;;
34019;SDS011;20895;51.034;3.742;2022-10-17T05:33:54;10.18;;;7.25;;
34019;SDS011;20895;51.034;3.742;2022-10-17T05:36:20;12.20;;;7.53;;
34019;SDS011;20895;51.034;3.742;2022-10-17T05:38:49;10.30;;;6.97;;
34019;SDS011;20895;51.034;3.742;2022-10-17T05:41:15;11.80;;;7.97;;
34019;SDS011;20895;51.034;3.742;2022-10-17T05:43:40;10.75;;;7.03;;
34019;SDS011;20895;51.034;3.742;2022-10-17T05:46:06;11.60;;;7.93;;
34019;SDS011;20895;51.034;3.742;2022-10-17T05:48:31;10.73;;;7.03;;
34019;SDS011;20895;51.034;3.742;2022-10-17T05:51:00;10.80;;;9.30;;
34019;SDS011;20895;51.034;3.742;2022-10-17T05:53:28;10.18;;;6.70;;
34019;SDS011;20895;51.034;3.742;2022-10-17T05:55:55;9.40;;;6.50;;
34019;SDS011;20895;51.034;3.742;2022-10-17T05:58:20;10.98;;;6.32;;
34019;SDS011;20895;51.034;3.742;2022-10-17T06:00:45;9.65;;;6.93;;
34019;SDS011;20895;51.034;3.742;2022-10-17T06:03:10;12.32;;;8.40;;
34019;SDS011;20895;51.034;3.742;2022-10-17T06:05:36;12.15;;;8.48;;
34019;SDS011;20895;51.034;3.742;2022-10-17T06:08:01;11.40;;;6.80;;
34019;SDS011;20895;51.034;3.742;2022-10-17T06:10:26;8.60;;;6.22;;
34019;SDS011;20895;51.034;3.742;2022-10-17T06:12:51;10.70;;;7.03;;
34019;SDS011;20895;51.034;3.742;2022-10-17T06:15:16;11.47;;;7.10;;
34019;SDS011;20895;51.034;3.742;2022-10-17T06:17:42;12.90;;;7.63;;
34019;SDS011;20895;51.034;3.742;2022-10-17T06:20:07;13.55;;;7.55;;
34019;SDS011;20895;51.034;3.742;2022-10-17T06:22:32;19.23;;;7.45;;
34019;SDS011;20895;51.034;3.742;2022-10-17T06:24:58;16.30;;;8.07;;
34019;SDS011;20895;51.034;3.742;2022-10-17T06:27:23;13.60;;;7.55;;
34019;SDS011;20895;51.034;3.742;2022-10-17T06:29:48;11.25;;;7.57;;
34019;SDS011;20895;51.034;3.742;2022-10-17T06:32:15;13.00;;;6.72;;
34019;SDS011;20895;51.034;3.742;2022-10-17T06:34:40;13.93;;;8.20;;
34019;SDS011;20895;51.034;3.742;2022-10-17T06:37:05;10.85;;;6.85;;
34019;SDS011;20895;51.034;3.742;2022-10-17T06:39:30;15.35;;;7.03;;
34019;SDS011;20895;51.034;3.742;2022-10-17T06:42:01;10.15;;;6.72;;
34019;SDS011;20895;51.034;3.742;2022-10-17T06:44:26;11.25;;;7.20;;
34019;SDS011;20895;51.034;3.742;2022-10-17T06:46:55;13.00;;;7.07;;
34019;SDS011;20895;51.034;3.742;2022-10-17T06:49:21;13.20;;;7.72;;
34019;SDS011;20895;51.034;3.742;2022-10-17T06:51:46;10.52;;;6.93;;
34019;SDS011;20895;51.034;3.742;2022-10-17T06:54:11;17.33;;;8.95;;
34019;SDS011;20895;51.034;3.742;2022-10-17T06:56:37;13.80;;;8.80;;
34019;SDS011;20895;51.034;3.742;2022-10-17T06:59:02;12.77;;;9.02;;
34019;SDS011;20895;51.034;3.742;2022-10-17T07:01:27;11.23;;;8.10;;
34019;SDS011;20895;51.034;3.742;2022-10-17T07:03:53;13.45;;;8.52;;
34019;SDS011;20895;51.034;3.742;2022-10-17T07:06:19;11.15;;;7.78;;
34019;SDS011;20895;51.034;3.742;2022-10-17T07:08:44;11.32;;;7.88;;
34019;SDS011;20895;51.034;3.742;2022-10-17T07:11:14;11.45;;;8.88;;
34019;SDS011;20895;51.034;3.742;2022-10-17T07:13:40;12.25;;;8.63;;
34019;SDS011;20895;51.034;3.742;2022-10-17T07:16:05;13.02;;;8.80;;
34019;SDS011;20895;51.034;3.742;2022-10-17T07:18:31;12.40;;;9.35;;
34019;SDS011;20895;51.034;3.742;2022-10-17T07:20:56;10.40;;;9.10;;
34019;SDS011;20895;51.034;3.742;2022-10-17T07:23:21;12.55;;;10.10;;
34019;SDS011;20895;51.034;3.742;2022-10-17T07:25:47;14.10;;;9.32;;
34019;SDS011;20895;51.034;3.742;2022-10-17T07:28:13;15.93;;;9.77;;
34019;SDS011;20895;51.034;3.742;2022-10-17T07:30:38;12.93;;;9.57;;
34019;SDS011;20895;51.034;3.742;2022-10-17T07:33:03;16.10;;;10.10;;
34019;SDS011;20895;51.034;3.742;2022-10-17T07:35:28;14.35;;;9.57;;
34019;SDS011;20895;51.034;3.742;2022-10-17T07:37:53;11.95;;;10.05;;
34019;SDS011;20895;51.034;3.742;2022-10-17T07:40:19;15.02;;;10.60;;
34019;SDS011;20895;51.034;3.742;2022-10-17T07:42:44;16.23;;;10.00;;
34019;SDS011;20895;51.034;3.742;2022-10-17T07:45:09;15.70;;;9.90;;
34019;SDS011;20895;51.034;3.742;2022-10-17T07:47:35;13.50;;;9.45;;
34019;SDS011;20895;51.034;3.742;2022-10-17T07:50:01;14.15;;;10.48;;
34019;SDS011;20895;51.034;3.742;2022-10-17T07:52:26;15.68;;;11.02;;
34019;SDS011;20895;51.034;3.742;2022-10-17T07:54:51;15.43;;;9.95;;
34019;SDS011;20895;51.034;3.742;2022-10-17T07:57:16;13.07;;;9.68;;
34019;SDS011;20895;51.034;3.742;2022-10-17T07:59:42;15.50;;;9.35;;
34019;SDS011;20895;51.034;3.742;2022-10-17T08:02:19;12.77;;;8.60;;
34019;SDS011;20895;51.034;3.742;2022-10-17T08:04:45;11.35;;;8.57;;
34019;SDS011;20895;51.034;3.742;2022-10-17T08:07:11;12.10;;;9.25;;
34019;SDS011;20895;51.034;3.742;2022-10-17T08:09:36;15.23;;;8.00;;
34019;SDS011;20895;51.034;3.742;2022-10-17T08:12:01;12.55;;;9.32;;
34019;SDS011;20895;51.034;3.742;2022-10-17T08:14:27;12.98;;;8.73;;
34019;SDS011;20895;51.034;3.742;2022-10-17T08:16:53;13.20;;;8.60;;
34019;SDS011;20895;51.034;3.742;2022-10-17T08:19:18;13.00;;;8.25;;
34019;SDS011;20895;51.034;3.742;2022-10-17T08:21:43;10.97;;;8.83;;
34019;SDS011;20895;51.034;3.742;2022-10-17T08:24:10;13.88;;;9.05;;
34019;SDS011;20895;51.034;3.742;2022-10-17T08:26:36;10.13;;;9.10;;
34019;SDS011;20895;51.034;3.742;2022-10-17T08:29:01;11.15;;;8.48;;
34019;SDS011;20895;51.034;3.742;2022-10-17T08:31:26;12.60;;;8.15;;
34019;SDS011;20895;51.034;3.742;2022-10-17T08:33:52;11.30;;;8.98;;
34019;SDS011;20895;51.034;3.742;2022-10-17T08:36:18;11.68;;;8.27;;
34019;SDS011;20895;51.034;3.742;2022-10-17T08:38:43;13.23;;;9.63;;
34019;SDS011;20895;51.034;3.742;2022-10-17T08:46:22;11.82;;;9.57;;
34019;SDS011;20895;51.034;3.742;2022-10-17T08:48:52;13.10;;;9.00;;
34019;SDS011;20895;51.034;3.742;2022-10-17T08:51:22;10.75;;;8.63;;
34019;SDS011;20895;51.034;3.742;2022-10-17T08:56:18;12.47;;;8.53;;
34019;SDS011;20895;51.034;3.742;2022-10-17T08:58:43;14.95;;;8.20;;
34019;SDS011;20895;51.034;3.742;2022-10-17T09:06:24;11.93;;;7.38;;
34019;SDS011;20895;51.034;3.742;2022-10-17T09:16:35;13.65;;;9.13;;
34019;SDS011;20895;51.034;3.742;2022-10-17T09:24:33;13.15;;;9.00;;
34019;SDS011;20895;51.034;3.742;2022-10-17T09:27:02;14.07;;;9.82;;
34019;SDS011;20895;51.034;3.742;2022-10-17T09:29:28;15.90;;;9.43;;
34019;SDS011;20895;51.034;3.742;2022-10-17T09:31:58;10.43;;;8.45;;
34019;SDS011;20895;51.034;3.742;2022-10-17T09:34:25;17.83;;;9.05;;
34019;SDS011;20895;51.034;3.742;2022-10-17T09:36:51;13.02;;;8.77;;
34019;SDS011;20895;51.034;3.742;2022-10-17T09:39:17;14.52;;;8.25;;
34019;SDS011;20895;51.034;3.742;2022-10-17T09:41:47;10.27;;;8.00;;
34019;SDS011;20895;51.034;3.742;2022-10-17T09:46:38;8.40;;;7.50;;
34019;SDS011;20895;51.034;3.742;2022-10-17T09:49:05;7.75;;;5.78;;
34019;SDS011;20895;51.034;3.742;2022-10-17T09:51:35;12.40;;;6.90;;
34019;SDS011;20895;51.034;3.742;2022-10-17T09:54:02;10.63;;;7.25;;
34019;SDS011;20895;51.034;3.742;2022-10-17T09:56:28;10.00;;;6.68;;
34019;SDS011;20895;51.034;3.742;2022-10-17T09:58:57;13.70;;;6.78;;
34019;SDS011;20895;51.034;3.742;2022-10-17T10:01:23;8.48;;;6.28;;
34019;SDS011;20895;51.034;3.742;2022-10-17T10:04:11;8.32;;;6.55;;
34019;SDS011;20895;51.034;3.742;2022-10-17T10:06:34;11.00;;;6.22;;
34019;SDS011;20895;51.034;3.742;2022-10-17T10:09:00;8.63;;;5.90;;
34019;SDS011;20895;51.034;3.742;2022-10-17T10:11:48;9.10;;;6.35;;
34019;SDS011;20895;51.034;3.742;2022-10-17T10:14:22;8.20;;;5.97;;
34019;SDS011;20895;51.034;3.742;2022-10-17T10:16:49;7.45;;;5.47;;
34019;SDS011;20895;51.034;3.742;2022-10-17T10:22:13;9.90;;;5.15;;
34019;SDS011;20895;51.034;3.742;2022-10-17T10:24:39;8.30;;;5.88;;
34019;SDS011;20895;51.034;3.742;2022-10-17T10:27:04;7.22;;;5.05;;
34019;SDS011;20895;51.034;3.742;2022-10-17T10:32:06;7.45;;;5.13;;
34019;SDS011;20895;51.034;3.742;2022-10-17T10:34:32;8.25;;;5.00;;
34019;SDS011;20895;51.034;3.742;2022-10-17T10:37:01;9.85;;;5.20;;
34019;SDS011;20895;51.034;3.742;2022-10-17T10:41:51;8.53;;;5.60;;
34019;SDS011;20895;51.034;3.742;2022-10-17T10:44:17;5.43;;;3.83;;
34019;SDS011;20895;51.034;3.742;2022-10-17T10:46:43;5.85;;;4.28;;
34019;SDS011;20895;51.034;3.742;2022-10-17T10:49:26;7.90;;;3.97;;
34019;SDS011;20895;51.034;3.742;2022-10-17T10:54:24;6.53;;;4.47;;
34019;SDS011;20895;51.034;3.742;2022-10-17T10:56:52;6.20;;;3.70;;
34019;SDS011;20895;51.034;3.742;2022-10-17T10:59:23;5.00;;;3.58;;
34019;SDS011;20895;51.034;3.742;2022-10-17T11:04:39;8.30;;;3.88;;
34019;SDS011;20895;51.034;3.742;2022-10-17T11:07:08;7.38;;;3.60;;
34019;SDS011;20895;51.034;3.742;2022-10-17T11:14:48;8.07;;;3.40;;
34019;SDS011;20895;51.034;3.742;2022-10-17T11:17:22;4.75;;;3.38;;
34019;SDS011;20895;51.034;3.742;2022-10-17T11:22:36;7.38;;;3.80;;
34019;SDS011;20895;51.034;3.742;2022-10-17T11:27:31;5.72;;;3.28;;
34019;SDS011;20895;51.034;3.742;2022-10-17T11:29:57;4.75;;;3.10;;
34019;SDS011;20895;51.034;3.742;2022-10-17T11:32:40;4.50;;;2.50;;
34019;SDS011;20895;51.034;3.742;2022-10-17T11:37:33;5.50;;;2.70;;
34019;SDS011;20895;51.034;3.742;2022-10-17T11:40:00;5.70;;;2.85;;
34019;SDS011;20895;51.034;3.742;2022-10-17T11:42:27;3.92;;;2.80;;
34019;SDS011;20895;51.034;3.742;2022-10-17T11:45:08;8.13;;;2.80;;
34019;SDS011;20895;51.034;3.742;2022-10-17T11:47:37;5.60;;;4.22;;
34019;SDS011;20895;51.034;3.742;2022-10-17T11:50:18;4.90;;;3.90;;
34019;SDS011;20895;51.034;3.742;2022-10-17T11:52:45;5.18;;;2.80;;
34019;SDS011;20895;51.034;3.742;2022-10-17T11:55:14;4.28;;;2.72;;
34019;SDS011;20895;51.034;3.742;2022-10-17T12:00:17;3.83;;;2.70;;
34019;SDS011;20895;51.034;3.742;2022-10-17T12:05:33;5.03;;;2.88;;
34019;SDS011;20895;51.034;3.742;2022-10-17T12:10:51;6.82;;;3.20;;
34019;SDS011;20895;51.034;3.742;2022-10-17T12:15:51;5.10;;;3.03;;
34019;SDS011;20895;51.034;3.742;2022-10-17T12:18:17;3.75;;;2.80;;
34019;SDS011;20895;51.034;3.742;2022-10-17T12:20:42;5.47;;;3.35;;
34019;SDS011;20895;51.034;3.742;2022-10-17T12:25:58;5.65;;;3.05;;
34019;SDS011;20895;51.034;3.742;2022-10-17T12:30:54;5.55;;;3.05;;
34019;SDS011;20895;51.034;3.742;2022-10-17T12:46:50;5.72;;;3.03;;
34019;SDS011;20895;51.034;3.742;2022-10-17T12:49:20;6.45;;;2.90;;
34019;SDS011;20895;51.034;3.742;2022-10-17T12:54:30;7.93;;;2.80;;
34019;SDS011;20895;51.034;3.742;2022-10-17T12:56:56;3.85;;;2.30;;
34019;SDS011;20895;51.034;3.742;2022-10-17T12:59:26;5.85;;;2.90;;
34019;SDS011;20895;51.034;3.742;2022-10-17T13:01:53;7.13;;;2.60;;
34019;SDS011;20895;51.034;3.742;2022-10-17T13:04:20;4.82;;;3.10;;
34019;SDS011;20895;51.034;3.742;2022-10-17T13:06:46;4.10;;;2.65;;
34019;SDS011;20895;51.034;3.742;2022-10-17T13:11:50;8.27;;;3.67;;
34019;SDS011;20895;51.034;3.742;2022-10-17T13:14:16;5.15;;;2.70;;
34019;SDS011;20895;51.034;3.742;2022-10-17T13:16:52;9.65;;;2.92;;
34019;SDS011;20895;51.034;3.742;2022-10-17T13:19:19;5.30;;;3.10;;
34019;SDS011;20895;51.034;3.742;2022-10-17T13:21:53;5.13;;;2.50;;
34019;SDS011;20895;51.034;3.742;2022-10-17T13:24:29;5.63;;;2.53;;
34019;SDS011;20895;51.034;3.742;2022-10-17T13:26:54;5.93;;;2.67;;
34019;SDS011;20895;51.034;3.742;2022-10-17T13:29:20;6.25;;;2.40;;
34019;SDS011;20895;51.034;3.742;2022-10-17T13:31:53;6.70;;;3.13;;
34019;SDS011;20895;51.034;3.742;2022-10-17T13:34:20;4.30;;;2.03;;
34019;SDS011;20895;51.034;3.742;2022-10-17T13:36:46;3.60;;;2.15;;
34019;SDS011;20895;51.034;3.742;2022-10-17T13:39:19;6.03;;;2.00;;
34019;SDS011;20895;51.034;3.742;2022-10-17T13:41:46;3.55;;;1.92;;
34019;SDS011;20895;51.034;3.742;2022-10-17T13:44:15;5.00;;;2.20;;
34019;SDS011;20895;51.034;3.742;2022-10-17T13:46:42;6.35;;;2.50;;
34019;SDS011;20895;51.034;3.742;2022-10-17T13:49:14;5.80;;;2.17;;
34019;SDS011;20895;51.034;3.742;2022-10-17T13:51:44;4.88;;;2.28;;
34019;SDS011;20895;51.034;3.742;2022-10-17T13:54:17;3.53;;;2.05;;
34019;SDS011;20895;51.034;3.742;2022-10-17T13:56:43;5.10;;;2.03;;
34019;SDS011;20895;51.034;3.742;2022-10-17T13:59:17;4.45;;;1.95;;
34019;SDS011;20895;51.034;3.742;2022-10-17T14:01:46;3.75;;;2.00;;
34019;SDS011;20895;51.034;3.742;2022-10-17T14:04:13;4.28;;;1.90;;
34019;SDS011;20895;51.034;3.742;2022-10-17T14:06:40;4.07;;;1.75;;
34019;SDS011;20895;51.034;3.742;2022-10-17T14:09:14;8.05;;;1.92;;
34019;SDS011;20895;51.034;3.742;2022-10-17T14:11:41;6.95;;;2.22;;
34019;SDS011;20895;51.034;3.742;2022-10-17T14:14:21;4.90;;;2.05;;
34019;SDS011;20895;51.034;3.742;2022-10-17T14:16:46;3.85;;;2.20;;
34019;SDS011;20895;51.034;3.742;2022-10-17T14:19:30;3.85;;;2.10;;
34019;SDS011;20895;51.034;3.742;2022-10-17T14:24:41;5.72;;;2.35;;
34019;SDS011;20895;51.034;3.742;2022-10-17T14:29:52;3.60;;;1.88;;
34019;SDS011;20895;51.034;3.742;2022-10-17T14:32:18;6.50;;;2.08;;
34019;SDS011;20895;51.034;3.742;2022-10-17T14:34:43;4.35;;;2.00;;
34019;SDS011;20895;51.034;3.742;2022-10-17T14:37:35;6.25;;;2.25;;
34019;SDS011;20895;51.034;3.742;2022-10-17T14:39:57;5.38;;;2.38;;
34019;SDS011;20895;51.034;3.742;2022-10-17T14:42:23;4.25;;;2.15;;
34019;SDS011;20895;51.034;3.742;2022-10-17T14:44:49;5.68;;;2.50;;
34019;SDS011;20895;51.034;3.742;2022-10-17T14:47:19;4.70;;;2.30;;
34019;SDS011;20895;51.034;3.742;2022-10-17T14:49:47;5.38;;;2.50;;
34019;SDS011;20895;51.034;3.742;2022-10-17T14:54:43;5.78;;;2.42;;
34019;SDS011;20895;51.034;3.742;2022-10-17T14:59:41;6.85;;;3.08;;
34019;SDS011;20895;51.034;3.742;2022-10-17T15:02:07;3.70;;;2.33;;
34019;SDS011;20895;51.034;3.742;2022-10-17T15:04:32;5.07;;;2.88;;
34019;SDS011;20895;51.034;3.742;2022-10-17T15:06:58;4.18;;;2.40;;
34019;SDS011;20895;51.034;3.742;2022-10-17T15:09:23;6.53;;;2.60;;
34019;SDS011;20895;51.034;3.742;2022-10-17T15:11:52;3.80;;;2.55;;
34019;SDS011;20895;51.034;3.742;2022-10-17T15:14:17;5.13;;;3.35;;
34019;SDS011;20895;51.034;3.742;2022-10-17T15:16:42;5.25;;;2.50;;
34019;SDS011;20895;51.034;3.742;2022-10-17T15:19:08;5.22;;;2.97;;
34019;SDS011;20895;51.034;3.742;2022-10-17T15:21:33;5.28;;;2.40;;
34019;SDS011;20895;51.034;3.742;2022-10-17T15:23:58;4.72;;;2.55;;
34019;SDS011;20895;51.034;3.742;2022-10-17T15:26:29;6.93;;;2.63;;
34019;SDS011;20895;51.034;3.742;2022-10-17T15:28:55;4.68;;;3.00;;
34019;SDS011;20895;51.034;3.742;2022-10-17T15:31:20;5.13;;;2.75;;
34019;SDS011;20895;51.034;3.742;2022-10-17T15:33:46;7.82;;;2.83;;
34019;SDS011;20895;51.034;3.742;2022-10-17T15:38:53;6.85;;;3.08;;
34019;SDS011;20895;51.034;3.742;2022-10-17T15:41:19;6.28;;;2.80;;
34019;SDS011;20895;51.034;3.742;2022-10-17T15:43:45;5.97;;;3.05;;
34019;SDS011;20895;51.034;3.742;2022-10-17T15:46:12;4.57;;;2.67;;
34019;SDS011;20895;51.034;3.742;2022-10-17T15:48:37;5.13;;;3.20;;
34019;SDS011;20895;51.034;3.742;2022-10-17T15:51:03;5.90;;;3.15;;
34019;SDS011;20895;51.034;3.742;2022-10-17T15:53:28;3.70;;;2.95;;
34019;SDS011;20895;51.034;3.742;2022-10-17T15:55:53;5.50;;;2.97;;
34019;SDS011;20895;51.034;3.742;2022-10-17T15:58:19;6.03;;;3.40;;
34019;SDS011;20895;51.034;3.742;2022-10-17T16:00:44;7.15;;;2.90;;
34019;SDS011;20895;51.034;3.742;2022-10-17T16:03:09;12.23;;;4.55;;
34019;SDS011;20895;51.034;3.742;2022-10-17T16:05:35;4.97;;;2.88;;
34019;SDS011;20895;51.034;3.742;2022-10-17T16:08:00;5.28;;;2.95;;
34019;SDS011;20895;51.034;3.742;2022-10-17T16:10:25;10.27;;;3.25;;
34019;SDS011;20895;51.034;3.742;2022-10-17T16:12:51;5.05;;;3.58;;
34019;SDS011;20895;51.034;3.742;2022-10-17T16:15:23;6.90;;;2.92;;
34019;SDS011;20895;51.034;3.742;2022-10-17T16:17:49;6.28;;;3.35;;
34019;SDS011;20895;51.034;3.742;2022-10-17T16:20:15;6.90;;;3.63;;
34019;SDS011;20895;51.034;3.742;2022-10-17T16:22:41;14.30;;;4.20;;
34019;SDS011;20895;51.034;3.742;2022-10-17T16:25:19;6.50;;;3.55;;
34019;SDS011;20895;51.034;3.742;2022-10-17T16:27:49;5.78;;;2.85;;
34019;SDS011;20895;51.034;3.742;2022-10-17T16:30:14;4.85;;;2.67;;
34019;SDS011;20895;51.034;3.742;2022-10-17T16:32:40;7.25;;;2.58;;
34019;SDS011;20895;51.034;3.742;2022-10-17T16:35:06;5.22;;;3.08;;
34019;SDS011;20895;51.034;3.742;2022-10-17T16:37:31;5.68;;;3.00;;
34019;SDS011;20895;51.034;3.742;2022-10-17T16:39:57;5.68;;;3.63;;
34019;SDS011;20895;51.034;3.742;2022-10-17T16:42:22;5.47;;;3.22;;
34019;SDS011;20895;51.034;3.742;2022-10-17T16:44:48;8.00;;;5.22;;
34019;SDS011;20895;51.034;3.742;2022-10-17T16:47:14;8.23;;;4.10;;
34019;SDS011;20895;51.034;3.742;2022-10-17T16:49:39;5.72;;;3.47;;
34019;SDS011;20895;51.034;3.742;2022-10-17T16:52:04;5.10;;;2.90;;
34019;SDS011;20895;51.034;3.742;2022-10-17T16:54:29;5.68;;;3.42;;
34019;SDS011;20895;51.034;3.742;2022-10-17T16:56:55;5.20;;;3.45;;